createdAt,value
2018-04-28T00:00:00.807Z,100437.78
2018-04-28T00:01:04.860Z,100439.62
2018-04-28T00:02:08.286Z,100437.86
2018-04-28T00:03:11.756Z,100442.72
2018-04-28T00:04:15.359Z,100441.04
2018-04-28T00:05:18.805Z,100451.26
2018-04-28T00:06:22.181Z,100447.81
2018-04-28T00:07:25.511Z,100453.59
2018-04-28T00:08:41.720Z,100453.59
2018-04-28T00:09:45.089Z,100455.05
2018-04-28T00:10:48.502Z,100444.72
2018-04-28T00:11:51.912Z,100447.39
2018-04-28T00:12:55.605Z,100455.05
2018-04-28T00:13:59.066Z,100455.13
2018-04-28T00:15:02.504Z,100455.62
2018-04-28T00:16:07.996Z,100456.54
2018-04-28T00:17:14.971Z,100458.88
2018-04-28T00:18:18.454Z,100467.41
2018-04-28T00:19:23.531Z,100459.80
2018-04-28T00:20:27.030Z,100459.80
2018-04-28T00:21:31.273Z,100454.78
2018-04-28T00:22:45.658Z,100453.36
2018-04-28T00:23:49.041Z,100457.80
2018-04-28T00:24:53.504Z,100462.13
2018-04-28T00:26:01.633Z,100459.30
2018-04-28T00:28:59.643Z,100455.13
2018-04-28T00:31:58.169Z,100460.48
2018-04-28T00:33:05.225Z,100461.82
2018-04-28T00:34:10.990Z,100468.67
2018-04-28T00:35:14.903Z,100467.68
2018-04-28T00:36:19.952Z,100464.73
2018-04-28T00:37:24.950Z,100472.62
2018-04-28T00:38:28.863Z,100462.82
2018-04-28T00:39:34.665Z,100464.16
2018-04-28T00:40:41.570Z,100464.16
2018-04-28T00:41:44.975Z,100456.77
2018-04-28T00:42:56.334Z,100464.73
2018-04-28T00:44:18.616Z,100463.73
2018-04-28T00:45:23.150Z,100461.74
2018-04-28T00:46:27.869Z,100464.42
2018-04-28T00:47:31.275Z,100460.91
2018-04-28T00:48:42.284Z,100464.08
2018-04-28T00:50:02.828Z,100465.76
2018-04-28T00:51:07.399Z,100465.87
2018-04-28T00:52:11.233Z,100463.61
2018-04-28T00:53:15.132Z,100466.36
2018-04-28T00:54:19.456Z,100462.92
2018-04-28T00:55:24.332Z,100469.70
2018-04-28T00:56:27.720Z,100460.43
2018-04-28T00:59:21.924Z,100464.36
2018-04-28T01:00:26.259Z,100465.70
2018-04-28T01:01:35.926Z,100466.96
2018-04-28T01:02:39.405Z,100472.08
2018-04-28T01:03:44.466Z,100469.80
2018-04-28T01:04:48.269Z,100471.31
2018-04-28T01:05:51.723Z,100470.82
2018-04-28T01:06:55.143Z,100475.33
2018-04-28T01:07:59.140Z,100472.73
2018-04-28T01:09:02.782Z,100474.49
2018-04-28T01:10:08.325Z,100473.23
2018-04-28T01:11:13.493Z,100478.16
2018-04-28T01:12:17.358Z,100475.48
2018-04-28T01:13:20.873Z,100479.00
2018-04-28T01:14:49.094Z,100480.42
2018-04-28T01:15:52.668Z,100485.45
2018-04-28T01:16:56.347Z,100486.80
2018-04-28T01:18:05.435Z,100495.17
2018-04-28T01:19:14.854Z,100487.22
2018-04-28T01:21:51.666Z,100490.07
2018-04-28T01:23:10.772Z,100486.36
2018-04-28T01:24:23.196Z,100486.12
2018-04-28T01:25:27.618Z,100487.89
2018-04-28T01:28:30.435Z,100490.47
2018-04-28T01:29:36.236Z,100488.03
2018-04-28T01:30:48.068Z,100487.30
2018-04-28T01:31:55.028Z,100489.80
2018-04-28T01:34:30.722Z,100489.98
2018-04-28T01:37:19.738Z,100492.47
2018-04-28T01:38:24.274Z,100492.47
2018-04-28T01:41:16.711Z,100499.99
2018-04-28T01:44:09.578Z,100497.67
2018-04-28T01:45:20.903Z,100501.48
2018-04-28T01:46:27.718Z,100509.62
2018-04-28T01:47:47.711Z,100505.61
2018-04-28T01:48:52.114Z,100499.56
2018-04-28T01:49:59.138Z,100505.41
2018-04-28T01:51:05.373Z,100505.94
2018-04-28T01:52:11.276Z,100506.44
2018-04-28T01:53:14.792Z,100508.27
2018-04-28T01:57:43.667Z,100512.00
2018-04-28T01:58:52.825Z,100509.74
2018-04-28T02:01:29.396Z,100513.25
2018-04-28T02:02:43.615Z,100513.09
2018-04-28T02:03:56.834Z,100520.43
2018-04-28T02:05:07.262Z,100524.52
2018-04-28T02:07:59.728Z,100523.14
2018-04-28T02:09:19.544Z,100528.84
2018-04-28T02:10:33.001Z,100533.92
2018-04-28T02:13:23.869Z,100534.16
2018-04-28T02:14:31.192Z,100532.73
2018-04-28T02:15:40.249Z,100541.11
2018-04-28T02:16:44.843Z,100533.48
2018-04-28T02:19:41.210Z,100539.48
2018-04-28T02:22:27.890Z,100545.33
2018-04-28T02:25:13.396Z,100550.23
2018-04-28T02:26:27.640Z,100548.41
2018-04-28T02:29:15.876Z,100551.72
2018-04-28T02:30:19.229Z,100557.24
2018-04-28T02:33:00.199Z,100546.69
2018-04-28T02:34:12.319Z,100548.80
2018-04-28T02:36:48.995Z,100553.62
2018-04-28T02:38:00.115Z,100551.72
2018-04-28T02:39:16.531Z,100545.11
2018-04-28T02:40:34.915Z,100552.29
2018-04-28T02:41:39.875Z,100560.91
2018-04-28T02:42:47.805Z,100552.71
2018-04-28T02:43:56.774Z,100554.05
2018-04-28T02:45:09.203Z,100549.05
2018-04-28T02:46:14.817Z,100558.48
2018-04-28T02:47:21.896Z,100552.64
2018-04-28T02:50:27.344Z,100559.48
2018-04-28T02:53:11.363Z,100559.63
2018-04-28T02:54:26.591Z,100553.78
2018-04-28T02:55:36.368Z,100551.34
2018-04-28T02:56:54.195Z,100552.05
2018-04-28T02:58:14.228Z,100549.27
2018-04-28T02:59:24.065Z,100546.94
2018-04-28T03:00:36.523Z,100548.98
2018-04-28T03:01:47.396Z,100548.80
2018-04-28T03:02:52.490Z,100545.06
2018-04-28T03:03:58.620Z,100545.23
2018-04-28T03:05:09.940Z,100552.09
2018-04-28T03:06:19.820Z,100548.84
2018-04-28T03:07:24.528Z,100555.78
2018-04-28T03:08:47.806Z,100553.20
2018-04-28T03:09:58.753Z,100552.78
2018-04-28T03:11:03.086Z,100556.05
2018-04-28T03:12:06.709Z,100557.48
2018-04-28T03:13:26.554Z,100557.00
2018-04-28T03:14:31.157Z,100560.11
2018-04-28T03:15:34.461Z,100557.52
2018-04-28T03:16:42.500Z,100557.23
2018-04-28T03:17:57.878Z,100554.72
2018-04-28T03:19:03.268Z,100558.31
2018-04-28T03:20:09.129Z,100545.63
2018-04-28T03:21:14.447Z,100555.16
2018-04-28T03:22:19.932Z,100551.73
2018-04-28T03:23:35.450Z,100547.23
2018-04-28T03:24:50.770Z,100553.08
2018-04-28T03:25:57.494Z,100553.57
2018-04-28T03:27:03.061Z,100553.92
2018-04-28T03:28:12.333Z,100556.41
2018-04-28T03:29:15.834Z,100558.59
2018-04-28T03:31:50.542Z,100553.92
2018-04-28T03:32:56.752Z,100555.92
2018-04-28T03:35:35.718Z,100555.68
2018-04-28T03:36:40.186Z,100550.22
2018-04-28T03:37:47.794Z,100553.66
2018-04-28T03:40:25.789Z,100556.59
2018-04-28T03:41:30.024Z,100557.86
2018-04-28T03:42:37.257Z,100557.19
2018-04-28T03:43:41.260Z,100558.02
2018-04-28T03:44:51.260Z,100562.95
2018-04-28T03:46:01.557Z,100553.17
2018-04-28T03:47:18.341Z,100563.60
2018-04-28T03:48:27.155Z,100558.50
2018-04-28T03:49:30.904Z,100558.00
2018-04-28T03:50:34.465Z,100555.68
2018-04-28T03:51:50.881Z,100555.19
2018-04-28T03:53:10.105Z,100559.00
2018-04-28T03:54:16.164Z,100560.59
2018-04-28T03:55:22.840Z,100561.01
2018-04-28T03:56:28.204Z,100561.01
2018-04-28T03:57:43.637Z,100560.59
2018-04-28T03:58:58.698Z,100561.34
2018-04-28T04:00:14.046Z,100561.59
2018-04-28T04:01:29.419Z,100568.08
2018-04-28T04:02:44.583Z,100564.17
2018-04-28T04:04:00.094Z,100565.70
2018-04-28T04:05:10.937Z,100562.85
2018-04-28T04:06:18.164Z,100561.16
2018-04-28T04:07:24.573Z,100564.76
2018-04-28T04:10:30.926Z,100563.41
2018-04-28T04:13:46.968Z,100564.90
2018-04-28T04:16:28.244Z,100569.13
2018-04-28T04:19:10.834Z,100568.06
2018-04-28T04:20:32.691Z,100574.08
2018-04-28T04:23:18.477Z,100570.74
2018-04-28T04:24:52.877Z,100575.00
2018-04-28T04:27:52.382Z,100578.98
2018-04-28T04:32:11.746Z,100592.56
2018-04-28T04:35:23.665Z,100594.32
2018-04-28T04:38:06.732Z,100595.91
2018-04-28T04:39:12.036Z,100594.24
2018-04-28T04:42:02.869Z,100607.79
2018-04-28T04:43:12.091Z,100603.63
2018-04-28T04:45:57.984Z,100609.23
2018-04-28T04:47:01.553Z,100602.81
2018-04-28T04:49:55.256Z,100606.16
2018-04-28T04:51:01.548Z,100608.27
2018-04-28T04:52:28.052Z,100615.55
2018-04-28T04:53:33.288Z,100611.61
2018-04-28T04:54:45.474Z,100615.33
2018-04-28T04:55:48.894Z,100613.42
2018-04-28T04:58:38.184Z,100614.27
2018-04-28T05:01:32.392Z,100616.52
2018-04-28T05:02:47.594Z,100619.36
2018-04-28T05:05:35.407Z,100611.09
2018-04-28T05:06:50.620Z,100616.95
2018-04-28T05:09:53.429Z,100617.23
2018-04-28T05:11:22.874Z,100616.73
2018-04-28T05:12:30.088Z,100619.73
2018-04-28T05:13:38.401Z,100621.16
2018-04-28T05:16:22.991Z,100628.80
2018-04-28T05:17:46.269Z,100620.20
2018-04-28T05:20:37.447Z,100630.91
2018-04-28T05:23:30.408Z,100624.11
2018-04-28T05:26:14.017Z,100630.98
2018-04-28T05:27:20.449Z,100636.42
2018-04-28T05:28:34.344Z,100637.36
2018-04-28T05:31:08.711Z,100637.88
2018-04-28T05:34:02.463Z,100641.72
2018-04-28T05:35:17.019Z,100639.31
2018-04-28T05:38:19.851Z,100648.28
2018-04-28T05:39:35.065Z,100644.51
2018-04-28T05:40:44.251Z,100656.73
2018-04-28T05:41:59.475Z,100652.80
2018-04-28T05:43:12.575Z,100658.33
2018-04-28T05:44:27.724Z,100651.48
2018-04-28T05:45:42.109Z,100656.84
2018-04-28T05:48:36.578Z,100661.20
2018-04-28T05:51:27.202Z,100658.34
2018-04-28T05:54:44.881Z,100654.83
2018-04-28T05:55:55.403Z,100664.62
2018-04-28T05:57:10.649Z,100666.41
2018-04-28T06:00:14.160Z,100662.90
2018-04-28T06:01:30.430Z,100669.43
2018-04-28T06:02:41.904Z,100665.78
2018-04-28T06:03:55.765Z,100674.83
2018-04-28T06:06:41.069Z,100673.80
2018-04-28T06:09:15.126Z,100676.49
2018-04-28T06:10:27.077Z,100678.34
2018-04-28T06:13:25.923Z,100678.60
2018-04-28T06:16:13.831Z,100684.95
2018-04-28T06:17:21.904Z,100689.14
2018-04-28T06:18:37.030Z,100684.89
2018-04-28T06:19:52.702Z,100684.78
2018-04-28T06:20:56.350Z,100680.69
2018-04-28T06:21:59.876Z,100687.55
2018-04-28T06:23:03.336Z,100687.33
2018-04-28T06:24:07.059Z,100692.02
2018-04-28T06:25:10.518Z,100689.42
2018-04-28T06:26:13.905Z,100689.05
2018-04-28T06:27:17.718Z,100684.20
2018-04-28T06:28:21.066Z,100687.53
2018-04-28T06:29:24.599Z,100690.73
2018-04-28T06:30:27.982Z,100687.71
2018-04-28T06:31:31.363Z,100690.48
2018-04-28T06:32:34.712Z,100689.48
2018-04-28T06:33:38.203Z,100687.88
2018-04-28T06:34:41.819Z,100692.69
2018-04-28T06:35:45.507Z,100695.45
2018-04-28T06:36:49.076Z,100691.09
2018-04-28T06:37:52.566Z,100692.17
2018-04-28T06:38:59.397Z,100693.75
2018-04-28T06:40:02.831Z,100698.19
2018-04-28T06:41:06.664Z,100700.64
2018-04-28T06:42:10.436Z,100695.09
2018-04-28T06:43:14.039Z,100699.04
2018-04-28T06:44:17.560Z,100689.00
2018-04-28T06:45:21.005Z,100703.90
2018-04-28T06:46:24.624Z,100697.11
2018-04-28T06:47:28.476Z,100694.00
2018-04-28T06:48:32.067Z,100702.73
2018-04-28T06:49:35.590Z,100706.75
2018-04-28T06:50:39.056Z,100708.09
2018-04-28T06:51:42.730Z,100707.66
2018-04-28T06:52:46.352Z,100712.53
2018-04-28T06:53:49.984Z,100710.69
2018-04-28T06:54:53.363Z,100710.09
2018-04-28T06:55:57.135Z,100717.48
2018-04-28T06:57:00.737Z,100717.72
2018-04-28T06:58:04.092Z,100710.44
2018-04-28T06:59:07.709Z,100715.89
2018-04-28T07:00:11.091Z,100725.17
2018-04-28T07:01:14.527Z,100719.90
2018-04-28T07:02:17.969Z,100716.88
2018-04-28T07:03:21.400Z,100724.77
2018-04-28T07:04:24.897Z,100720.91
2018-04-28T07:05:28.639Z,100720.42
2018-04-28T07:06:32.111Z,100717.98
2018-04-28T07:07:36.226Z,100722.66
2018-04-28T07:08:40.422Z,100718.37
2018-04-28T07:09:43.862Z,100720.91
2018-04-28T07:10:47.883Z,100724.83
2018-04-28T07:11:51.549Z,100720.45
2018-04-28T07:12:55.212Z,100716.51
2018-04-28T07:13:58.778Z,100715.52
2018-04-28T07:15:02.189Z,100722.14
2018-04-28T07:16:05.857Z,100722.14
2018-04-28T07:17:09.307Z,100723.98
2018-04-28T07:18:13.228Z,100720.72
2018-04-28T07:19:16.595Z,100720.38
2018-04-28T07:20:19.937Z,100720.03
2018-04-28T07:21:23.696Z,100722.14
2018-04-28T07:22:27.191Z,100721.80
2018-04-28T07:23:30.590Z,100716.62
2018-04-28T07:24:33.952Z,100723.91
2018-04-28T07:25:37.762Z,100720.88
2018-04-28T07:26:41.204Z,100721.75
2018-04-28T07:27:44.538Z,100726.92
2018-04-28T07:28:48.165Z,100732.20
2018-04-28T07:29:51.559Z,100723.44
2018-04-28T07:30:55.158Z,100727.50
2018-04-28T07:31:58.808Z,100727.13
2018-04-28T07:33:02.517Z,100728.03
2018-04-28T07:34:06.387Z,100725.40
2018-04-28T07:35:10.180Z,100729.06
2018-04-28T07:36:13.562Z,100732.08
2018-04-28T07:37:17.134Z,100728.33
2018-04-28T07:38:20.521Z,100732.34
2018-04-28T07:39:25.270Z,100733.67
2018-04-28T07:40:28.721Z,100738.50
2018-04-28T07:41:32.154Z,100734.28
2018-04-28T07:42:35.796Z,100743.98
2018-04-28T07:43:39.295Z,100740.77
2018-04-28T07:44:42.730Z,100741.26
2018-04-28T07:45:46.185Z,100736.86
2018-04-28T07:46:49.764Z,100735.32
2018-04-28T07:47:53.172Z,100733.73
2018-04-28T07:48:56.722Z,100735.88
2018-04-28T07:50:00.173Z,100735.80
2018-04-28T07:51:03.826Z,100736.64
2018-04-28T07:52:07.180Z,100737.14
2018-04-28T07:53:10.711Z,100738.41
2018-04-28T07:54:14.215Z,100733.73
2018-04-28T07:55:17.699Z,100735.37
2018-04-28T07:56:21.381Z,100739.01
2018-04-28T07:57:24.869Z,100742.48
2018-04-28T07:58:28.984Z,100739.45
2018-04-28T07:59:32.696Z,100737.04
2018-04-28T08:00:36.258Z,100741.73
2018-04-28T08:01:40.606Z,100743.08
2018-04-28T08:02:44.116Z,100736.98
2018-04-28T08:03:47.616Z,100743.36
2018-04-28T08:04:51.143Z,100736.05
2018-04-28T08:05:54.497Z,100741.44
2018-04-28T08:06:58.463Z,100734.70
2018-04-28T08:08:01.868Z,100739.47
2018-04-28T08:09:05.449Z,100737.69
2018-04-28T08:10:08.816Z,100736.32
2018-04-28T08:11:12.161Z,100739.72
2018-04-28T08:12:15.624Z,100740.62
2018-04-28T08:13:19.391Z,100733.53
2018-04-28T08:14:22.798Z,100735.86
2018-04-28T08:15:26.220Z,100736.34
2018-04-28T08:16:29.648Z,100734.55
2018-04-28T08:17:33.049Z,100731.16
2018-04-28T08:18:36.446Z,100735.95
2018-04-28T08:19:39.837Z,100730.48
2018-04-28T08:20:43.448Z,100732.98
2018-04-28T08:21:47.128Z,100735.79
2018-04-28T08:22:50.574Z,100737.44
2018-04-28T08:23:53.991Z,100732.31
2018-04-28T08:24:57.529Z,100733.20
2018-04-28T08:26:00.952Z,100734.41
2018-04-28T08:27:04.640Z,100739.69
2018-04-28T08:28:08.018Z,100734.95
2018-04-28T08:29:11.495Z,100734.72
2018-04-28T08:30:14.919Z,100735.28
2018-04-28T08:31:18.452Z,100739.15
2018-04-28T08:32:22.117Z,100739.06
2018-04-28T08:33:25.516Z,100732.05
2018-04-28T08:34:28.978Z,100735.63
2018-04-28T08:35:32.566Z,100734.84
2018-04-28T08:36:36.272Z,100734.98
2018-04-28T08:37:39.774Z,100730.52
2018-04-28T08:38:43.112Z,100735.41
2018-04-28T08:39:47.608Z,100733.13
2018-04-28T08:40:51.070Z,100740.25
2018-04-28T08:41:54.400Z,100744.34
2018-04-28T08:42:57.783Z,100742.00
2018-04-28T08:44:01.105Z,100745.16
2018-04-28T08:45:04.449Z,100745.50
2018-04-28T08:46:08.191Z,100742.47
2018-04-28T08:47:11.670Z,100733.25
2018-04-28T08:48:15.067Z,100743.09
2018-04-28T08:49:18.776Z,100748.23
2018-04-28T08:50:22.221Z,100740.15
2018-04-28T08:51:25.655Z,100743.27
2018-04-28T08:52:30.327Z,100742.17
2018-04-28T08:53:33.775Z,100740.88
2018-04-28T08:54:37.177Z,100744.00
2018-04-28T08:55:41.246Z,100741.19
2018-04-28T08:56:44.746Z,100745.19
2018-04-28T08:57:48.157Z,100749.16
2018-04-28T08:58:51.601Z,100742.30
2018-04-28T09:00:07.004Z,100743.19
2018-04-28T09:01:10.422Z,100742.91
2018-04-28T09:02:13.877Z,100747.33
2018-04-28T09:03:17.232Z,100745.05
2018-04-28T09:04:20.557Z,100750.95
2018-04-28T09:05:24.232Z,100748.54
2018-04-28T09:06:27.767Z,100753.17
2018-04-28T09:07:39.182Z,100751.32
2018-04-28T09:08:42.572Z,100752.67
2018-04-28T09:09:46.428Z,100752.72
2018-04-28T09:10:49.951Z,100748.05
2018-04-28T09:11:53.344Z,100748.59
2018-04-28T09:12:56.969Z,100756.25
2018-04-28T09:14:00.256Z,100750.95
2018-04-28T09:15:03.636Z,100752.30
2018-04-28T09:16:07.125Z,100757.77
2018-04-28T09:17:11.355Z,100757.05
2018-04-28T09:18:15.263Z,100757.22
2018-04-28T09:19:18.612Z,100763.41
2018-04-28T09:20:22.057Z,100755.99
2018-04-28T09:21:25.399Z,100751.31
2018-04-28T09:22:30.163Z,100751.52
2018-04-28T09:23:33.662Z,100748.36
2018-04-28T09:24:37.164Z,100753.49
2018-04-28T09:25:40.522Z,100761.95
2018-04-28T09:26:44.021Z,100760.27
2018-04-28T09:27:47.592Z,100757.35
2018-04-28T09:28:51.068Z,100757.35
2018-04-28T09:29:54.524Z,100756.94
2018-04-28T09:30:58.281Z,100761.39
2018-04-28T09:32:01.846Z,100759.45
2018-04-28T09:33:05.317Z,100763.63
2018-04-28T09:34:08.883Z,100759.39
2018-04-28T09:35:12.395Z,100758.80
2018-04-28T09:36:15.837Z,100756.02
2018-04-28T09:37:19.373Z,100761.49
2018-04-28T09:38:23.106Z,100756.19
2018-04-28T09:39:26.715Z,100763.43
2018-04-28T09:40:30.392Z,100767.05
2018-04-28T09:41:33.691Z,100764.27
2018-04-28T09:42:37.081Z,100765.53
2018-04-28T09:43:41.024Z,100766.17
2018-04-28T09:44:44.400Z,100765.50
2018-04-28T09:45:47.728Z,100767.06
2018-04-28T09:46:51.139Z,100769.67
2018-04-28T09:47:54.494Z,100769.76
2018-04-28T09:48:57.873Z,100766.34
2018-04-28T09:50:01.379Z,100770.77
2018-04-28T09:51:04.922Z,100775.48
2018-04-28T09:52:08.347Z,100773.56
2018-04-28T09:53:11.815Z,100775.63
2018-04-28T09:54:15.358Z,100765.61
2018-04-28T09:55:19.439Z,100769.70
2018-04-28T09:56:22.881Z,100784.52
2018-04-28T09:57:26.256Z,100774.20
2018-04-28T09:58:29.826Z,100772.81
2018-04-28T09:59:33.295Z,100779.17
2018-04-28T10:00:52.354Z,100780.98
2018-04-28T10:01:58.622Z,100779.64
2018-04-28T10:03:11.939Z,100778.93
2018-04-28T10:04:21.188Z,100780.61
2018-04-28T10:05:24.861Z,100782.59
2018-04-28T10:06:28.232Z,100783.98
2018-04-28T10:07:31.643Z,100776.36
2018-04-28T10:08:35.190Z,100782.55
2018-04-28T10:09:38.824Z,100782.80
2018-04-28T10:10:42.285Z,100779.05
2018-04-28T10:11:45.993Z,100774.75
2018-04-28T10:12:49.641Z,100777.19
2018-04-28T10:13:53.166Z,100777.05
2018-04-28T10:14:56.675Z,100779.36
2018-04-28T10:16:00.110Z,100779.58
2018-04-28T10:17:03.601Z,100774.01
2018-04-28T10:18:07.082Z,100772.78
2018-04-28T10:19:10.504Z,100774.46
2018-04-28T10:20:14.127Z,100774.25
2018-04-28T10:21:17.479Z,100774.67
2018-04-28T10:22:20.995Z,100775.94
2018-04-28T10:23:24.396Z,100774.67
2018-04-28T10:24:27.877Z,100773.33
2018-04-28T10:25:31.568Z,100772.40
2018-04-28T10:26:35.176Z,100786.52
2018-04-28T10:27:38.744Z,100775.91
2018-04-28T10:28:42.100Z,100776.53
2018-04-28T10:29:45.841Z,100776.20
2018-04-28T10:30:49.428Z,100779.23
2018-04-28T10:31:52.743Z,100775.30
2018-04-28T10:32:56.133Z,100773.06
2018-04-28T10:33:59.600Z,100779.00
2018-04-28T10:35:03.069Z,100781.08
2018-04-28T10:36:06.532Z,100780.48
2018-04-28T10:37:10.018Z,100779.28
2018-04-28T10:38:13.371Z,100782.95
2018-04-28T10:39:16.688Z,100783.19
2018-04-28T10:40:20.300Z,100784.75
2018-04-28T10:41:24.788Z,100778.66
2018-04-28T10:42:28.230Z,100781.88
2018-04-28T10:43:31.754Z,100774.91
2018-04-28T10:44:35.125Z,100780.14
2018-04-28T10:45:38.921Z,100776.00
2018-04-28T10:46:42.610Z,100788.02
2018-04-28T10:47:46.046Z,100777.77
2018-04-28T10:48:49.441Z,100779.20
2018-04-28T10:49:52.947Z,100780.98
2018-04-28T10:50:56.383Z,100778.45
2018-04-28T10:52:00.154Z,100787.06
2018-04-28T10:53:04.304Z,100782.20
2018-04-28T10:54:07.700Z,100780.41
2018-04-28T10:55:12.219Z,100785.22
2018-04-28T10:56:15.624Z,100779.02
2018-04-28T10:57:18.961Z,100776.11
2018-04-28T10:58:22.385Z,100784.75
2018-04-28T10:59:25.759Z,100782.50
2018-04-28T11:00:29.237Z,100776.09
2018-04-28T11:01:32.691Z,100774.73
2018-04-28T11:02:36.088Z,100777.23
2018-04-28T11:03:39.508Z,100775.48
2018-04-28T11:04:42.910Z,100770.78
2018-04-28T11:05:46.413Z,100771.92
2018-04-28T11:06:49.852Z,100773.66
2018-04-28T11:07:53.247Z,100772.81
2018-04-28T11:08:56.631Z,100778.81
2018-04-28T11:10:00.126Z,100779.73
2018-04-28T11:11:03.548Z,100772.27
2018-04-28T11:12:06.895Z,100774.64
2018-04-28T11:13:10.320Z,100778.35
2018-04-28T11:14:13.681Z,100781.47
2018-04-28T11:15:17.264Z,100781.47
2018-04-28T11:16:20.583Z,100779.70
2018-04-28T11:17:23.928Z,100777.94
2018-04-28T11:18:28.155Z,100772.95
2018-04-28T11:19:31.728Z,100774.30
2018-04-28T11:20:35.246Z,100774.72
2018-04-28T11:21:38.632Z,100775.06
2018-04-28T11:22:42.062Z,100781.30
2018-04-28T11:23:48.531Z,100771.34
2018-04-28T11:24:52.093Z,100768.22
2018-04-28T11:25:55.699Z,100769.03
2018-04-28T11:26:59.307Z,100761.89
2018-04-28T11:28:02.705Z,100765.40
2018-04-28T11:29:06.292Z,100770.20
2018-04-28T11:30:09.708Z,100773.95
2018-04-28T11:31:13.333Z,100769.22
2018-04-28T11:32:16.778Z,100770.69
2018-04-28T11:33:20.287Z,100770.90
2018-04-28T11:34:23.805Z,100768.44
2018-04-28T11:35:27.298Z,100764.81
2018-04-28T11:36:30.805Z,100767.18
2018-04-28T11:37:34.244Z,100768.20
2018-04-28T11:38:37.747Z,100765.29
2018-04-28T11:39:41.088Z,100762.23
2018-04-28T11:40:44.551Z,100766.80
2018-04-28T11:41:48.837Z,100767.42
2018-04-28T11:42:52.226Z,100761.69
2018-04-28T11:43:55.713Z,100753.56
2018-04-28T11:44:59.071Z,100754.58
2018-04-28T11:46:02.762Z,100758.11
2018-04-28T11:47:06.295Z,100760.52
2018-04-28T11:48:09.762Z,100751.28
2018-04-28T11:49:13.148Z,100752.55
2018-04-28T11:50:16.510Z,100757.64
2018-04-28T11:51:20.051Z,100756.80
2018-04-28T11:52:23.435Z,100756.68
2018-04-28T11:53:26.759Z,100753.47
2018-04-28T11:54:30.388Z,100753.59
2018-04-28T11:55:33.979Z,100745.34
2018-04-28T11:56:37.401Z,100748.13
2018-04-28T11:57:40.959Z,100749.98
2018-04-28T11:58:44.427Z,100743.53
2018-04-28T11:59:47.808Z,100757.61
2018-04-28T12:00:51.187Z,100750.36
2018-04-28T12:01:54.663Z,100751.47
2018-04-28T12:02:58.275Z,100751.63
2018-04-28T12:04:02.076Z,100744.44
2018-04-28T12:05:05.726Z,100746.84
2018-04-28T12:06:09.351Z,100743.03
2018-04-28T12:07:12.668Z,100747.47
2018-04-28T12:08:16.248Z,100743.42
2018-04-28T12:09:19.633Z,100739.20
2018-04-28T12:10:23.226Z,100745.05
2018-04-28T12:11:26.609Z,100739.25
2018-04-28T12:12:30.060Z,100749.25
2018-04-28T12:13:33.549Z,100750.62
2018-04-28T12:14:37.144Z,100749.94
2018-04-28T12:15:40.539Z,100751.50
2018-04-28T12:16:44.538Z,100755.37
2018-04-28T12:17:47.988Z,100756.00
2018-04-28T12:18:51.333Z,100751.02
2018-04-28T12:19:54.663Z,100757.86
2018-04-28T12:20:58.220Z,100754.62
2018-04-28T12:22:02.933Z,100753.86
2018-04-28T12:23:06.522Z,100751.16
2018-04-28T12:24:10.008Z,100749.81
2018-04-28T12:25:13.712Z,100747.53
2018-04-28T12:26:17.049Z,100748.59
2018-04-28T12:27:20.616Z,100745.98
2018-04-28T12:28:24.286Z,100757.80
2018-04-28T12:29:27.665Z,100761.84
2018-04-28T12:30:31.175Z,100756.03
2018-04-28T12:31:36.509Z,100763.11
2018-04-28T12:32:39.896Z,100765.59
2018-04-28T12:33:43.322Z,100761.03
2018-04-28T12:34:46.817Z,100756.56
2018-04-28T12:35:50.282Z,100756.56
2018-04-28T12:36:53.903Z,100751.80
2018-04-28T12:37:57.404Z,100749.70
2018-04-28T12:40:10.596Z,100747.39
2018-04-28T12:41:14.219Z,100762.74
2018-04-28T12:42:17.936Z,100752.28
2018-04-28T12:43:21.316Z,100751.55
2018-04-28T12:44:24.682Z,100752.94
2018-04-28T12:45:28.342Z,100753.30
2018-04-28T12:46:32.112Z,100749.37
2018-04-28T12:47:35.830Z,100751.38
2018-04-28T12:48:39.352Z,100752.76
2018-04-28T12:49:42.708Z,100742.16
2018-04-28T12:50:46.293Z,100748.85
2018-04-28T12:51:49.752Z,100748.97
2018-04-28T12:52:53.428Z,100751.28
2018-04-28T12:53:57.004Z,100747.16
2018-04-28T12:55:00.686Z,100745.09
2018-04-28T12:56:04.539Z,100748.83
2018-04-28T12:57:08.047Z,100744.48
2018-04-28T12:58:11.891Z,100744.06
2018-04-28T12:59:15.377Z,100745.41
2018-04-28T13:00:18.735Z,100753.94
2018-04-28T13:01:22.151Z,100754.66
2018-04-28T13:02:25.791Z,100751.69
2018-04-28T13:03:29.213Z,100759.06
2018-04-28T13:04:33.931Z,100757.11
2018-04-28T13:05:37.348Z,100765.09
2018-04-28T13:06:40.735Z,100764.83
2018-04-28T13:07:44.457Z,100763.68
2018-04-28T13:08:47.942Z,100756.66
2018-04-28T13:09:51.429Z,100763.61
2018-04-28T13:10:54.811Z,100759.37
2018-04-28T13:11:58.351Z,100761.53
2018-04-28T13:13:01.729Z,100760.08
2018-04-28T13:14:05.189Z,100764.01
2018-04-28T13:15:08.815Z,100767.82
2018-04-28T13:16:12.155Z,100763.66
2018-04-28T13:17:15.758Z,100756.48
2018-04-28T13:18:19.162Z,100761.47
2018-04-28T13:19:22.597Z,100760.53
2018-04-28T13:20:25.996Z,100762.00
2018-04-28T13:21:29.689Z,100759.81
2018-04-28T13:22:33.576Z,100762.61
2018-04-28T13:23:37.348Z,100764.28
2018-04-28T13:24:40.947Z,100763.75
2018-04-28T13:25:44.414Z,100761.05
2018-04-28T13:26:47.898Z,100762.39
2018-04-28T13:27:51.267Z,100755.77
2018-04-28T13:28:55.051Z,100753.24
2018-04-28T13:29:58.486Z,100749.67
2018-04-28T13:31:02.035Z,100748.63
2018-04-28T13:32:05.428Z,100752.77
2018-04-28T13:33:09.132Z,100750.82
2018-04-28T13:34:12.911Z,100749.37
2018-04-28T13:35:18.039Z,100752.37
2018-04-28T13:36:21.850Z,100749.58
2018-04-28T13:37:25.783Z,100747.73
2018-04-28T13:38:29.272Z,100753.91
2018-04-28T13:39:32.811Z,100746.33
2018-04-28T13:40:36.322Z,100748.00
2018-04-28T13:41:39.800Z,100746.16
2018-04-28T13:42:44.889Z,100749.53
2018-04-28T13:43:48.504Z,100742.55
2018-04-28T13:44:51.906Z,100738.45
2018-04-28T13:45:55.573Z,100743.25
2018-04-28T13:46:59.253Z,100738.05
2018-04-28T13:48:02.813Z,100740.77
2018-04-28T13:49:06.275Z,100739.63
2018-04-28T13:50:09.900Z,100746.20
2018-04-28T13:51:13.264Z,100735.72
2018-04-28T13:52:16.627Z,100733.73
2018-04-28T13:53:20.452Z,100737.92
2018-04-28T13:54:23.853Z,100734.49
2018-04-28T13:55:27.353Z,100730.97
2018-04-28T13:56:31.019Z,100735.47
2018-04-28T13:58:44.147Z,100733.30
2018-04-28T13:59:47.605Z,100734.04
2018-04-28T14:00:50.924Z,100729.98
2018-04-28T14:01:54.346Z,100729.98
2018-04-28T14:02:57.854Z,100735.39
2018-04-28T14:04:01.501Z,100732.36
2018-04-28T14:05:04.894Z,100738.28
2018-04-28T14:06:08.356Z,100732.16
2018-04-28T14:07:11.816Z,100729.22